North Tazewell, Virginia
Current Conditions -  °F | °C
As of 2:15 PM on Friday 21 Nov 2014 (Local Time) from KJFZ Reporting Station
Clear Clear  
Wind Chill: 36°   Ceiling: Unl
Heat Index: 39°   Visibility: 10mi
Dew Point:   Wind: 5mph
Humidity: 21%   Direction: 310°NW
Pressure: 30.38"   Gusts: NA
Location:  37.13°N, 81.53°W
Report Text: KJFZ 211915Z AUTO 31004KT 10SM CLR 04/M17 A3038 RMK AO2 T00391170
Loading
Personal Weather Stations






























Interactive Weather Map New forecast layout! Learn more

10-Day Weather Forecast

Advertisements
Track Severe Weather on mobile